createdAt,value
2018-02-10T00:04:00.000Z,98651
2018-02-10T00:09:00.000Z,98649
2018-02-10T00:14:00.000Z,98646
2018-02-10T00:19:00.000Z,98646
2018-02-10T00:24:00.000Z,98644
2018-02-10T00:29:00.000Z,98642
2018-02-10T00:34:00.000Z,98636
2018-02-10T00:39:00.000Z,98651
2018-02-10T00:44:00.000Z,98647
2018-02-10T00:49:00.000Z,98639
2018-02-10T00:54:00.000Z,98644
2018-02-10T00:59:00.000Z,98643
2018-02-10T01:04:00.000Z,98645
2018-02-10T01:09:00.000Z,98638
2018-02-10T01:14:00.000Z,98633
2018-02-10T01:19:00.000Z,98642
2018-02-10T01:24:00.000Z,98628
2018-02-10T01:29:00.000Z,98628
2018-02-10T01:34:00.000Z,98630
2018-02-10T01:39:00.000Z,98634
2018-02-10T01:44:00.000Z,98619
2018-02-10T01:49:00.000Z,98627
2018-02-10T01:54:00.000Z,98619
2018-02-10T01:59:00.000Z,98636
2018-02-10T02:04:00.000Z,98628
2018-02-10T02:09:00.000Z,98632
2018-02-10T02:14:00.000Z,98623
2018-02-10T02:19:00.000Z,98628
2018-02-10T02:24:00.000Z,98640
2018-02-10T02:29:00.000Z,98638
2018-02-10T02:34:00.000Z,98642
2018-02-10T02:39:00.000Z,98635
2018-02-10T02:44:00.000Z,98645
2018-02-10T02:49:00.000Z,98649
2018-02-10T02:54:00.000Z,98657
2018-02-10T02:59:00.000Z,98668
2018-02-10T03:04:00.000Z,98657
2018-02-10T03:10:00.000Z,98663
2018-02-10T03:15:00.000Z,98668
2018-02-10T03:20:00.000Z,98661
2018-02-10T03:25:00.000Z,98680
2018-02-10T03:30:00.000Z,98684
2018-02-10T03:35:00.000Z,98685
2018-02-10T03:40:00.000Z,98693
2018-02-10T03:45:00.000Z,98693
2018-02-10T03:50:00.000Z,98708
2018-02-10T03:55:00.000Z,98708
2018-02-10T04:00:00.000Z,98718
2018-02-10T04:05:00.000Z,98708
2018-02-10T04:10:00.000Z,98704
2018-02-10T04:15:00.000Z,98718
2018-02-10T04:20:00.000Z,98709
2018-02-10T04:25:00.000Z,98708
2018-02-10T04:30:00.000Z,98710
2018-02-10T04:35:00.000Z,98714
2018-02-10T04:40:00.000Z,98711
2018-02-10T04:45:00.000Z,98709
2018-02-10T04:50:00.000Z,98728
2018-02-10T04:55:00.000Z,98733
2018-02-10T05:00:00.000Z,98730
2018-02-10T05:05:00.000Z,98749
2018-02-10T05:10:00.000Z,98744
2018-02-10T05:15:00.000Z,98748
2018-02-10T05:20:00.000Z,98750
2018-02-10T05:25:00.000Z,98749
2018-02-10T05:30:00.000Z,98745
2018-02-10T05:35:00.000Z,98752
2018-02-10T05:40:00.000Z,98739
2018-02-10T05:45:00.000Z,98749
2018-02-10T05:50:00.000Z,98749
2018-02-10T05:55:00.000Z,98755
2018-02-10T06:00:00.000Z,98750
2018-02-10T06:05:00.000Z,98756
2018-02-10T06:10:00.000Z,98760
2018-02-10T06:15:00.000Z,98768
2018-02-10T06:20:00.000Z,98771
2018-02-10T06:25:00.000Z,98767
2018-02-10T06:30:00.000Z,98766
2018-02-10T06:35:00.000Z,98779
2018-02-10T06:40:00.000Z,98785
2018-02-10T06:45:00.000Z,98798
2018-02-10T06:50:00.000Z,98785
2018-02-10T06:55:00.000Z,98805
2018-02-10T07:00:00.000Z,98806
2018-02-10T07:05:00.000Z,98803
2018-02-10T07:10:00.000Z,98791
2018-02-10T07:15:00.000Z,98801
2018-02-10T07:20:00.000Z,98804
2018-02-10T07:25:00.000Z,98789
2018-02-10T07:30:00.000Z,98785
2018-02-10T07:35:00.000Z,98796
2018-02-10T07:40:00.000Z,98805
2018-02-10T07:45:00.000Z,98795
2018-02-10T07:50:00.000Z,98798
2018-02-10T07:55:00.000Z,98797
2018-02-10T08:00:00.000Z,98798
2018-02-10T08:05:00.000Z,98801
2018-02-10T08:10:00.000Z,98799
2018-02-10T08:15:00.000Z,98807
2018-02-10T08:20:00.000Z,98814
2018-02-10T08:25:00.000Z,98816
2018-02-10T08:30:00.000Z,98823
2018-02-10T08:35:00.000Z,98811
2018-02-10T08:40:00.000Z,98804
2018-02-10T08:45:00.000Z,98799
2018-02-10T08:50:00.000Z,98808
2018-02-10T08:55:00.000Z,98803
2018-02-10T09:00:00.000Z,98797
2018-02-10T09:05:00.000Z,98802
2018-02-10T09:11:00.000Z,98803
2018-02-10T09:16:00.000Z,98821
2018-02-10T09:21:00.000Z,98825
2018-02-10T09:26:00.000Z,98820
2018-02-10T09:31:00.000Z,98812
2018-02-10T09:36:00.000Z,98814
2018-02-10T09:41:00.000Z,98820
2018-02-10T09:46:00.000Z,98815
2018-02-10T09:51:00.000Z,98815
2018-02-10T09:56:00.000Z,98817
2018-02-10T10:01:00.000Z,98807
2018-02-10T10:06:00.000Z,98810
2018-02-10T10:11:00.000Z,98814
2018-02-10T10:16:00.000Z,98803
2018-02-10T10:21:00.000Z,98802
2018-02-10T10:26:00.000Z,98808
2018-02-10T10:31:00.000Z,98796
2018-02-10T10:36:00.000Z,98801
2018-02-10T10:41:00.000Z,98795
2018-02-10T10:46:00.000Z,98778
2018-02-10T10:51:00.000Z,98796
2018-02-10T10:56:00.000Z,98801
2018-02-10T11:01:00.000Z,98791
2018-02-10T11:06:00.000Z,98789
2018-02-10T11:11:00.000Z,98794
2018-02-10T11:16:00.000Z,98794
2018-02-10T11:21:00.000Z,98791
2018-02-10T11:26:00.000Z,98784
2018-02-10T11:31:00.000Z,98780
2018-02-10T11:36:00.000Z,98773
2018-02-10T11:41:00.000Z,98777
2018-02-10T11:46:00.000Z,98778
2018-02-10T11:51:00.000Z,98773
2018-02-10T11:56:00.000Z,98768
2018-02-10T12:01:00.000Z,98780
2018-02-10T12:06:00.000Z,98774
2018-02-10T12:11:00.000Z,98778
2018-02-10T12:16:00.000Z,98770
2018-02-10T12:21:00.000Z,98766
2018-02-10T12:26:00.000Z,98770
2018-02-10T12:31:00.000Z,98762
2018-02-10T12:36:00.000Z,98760
2018-02-10T12:41:00.000Z,98767
2018-02-10T12:46:00.000Z,98758
2018-02-10T12:51:00.000Z,98765
2018-02-10T12:56:00.000Z,98758
2018-02-10T13:01:00.000Z,98746
2018-02-10T13:06:00.000Z,98750
2018-02-10T13:11:00.000Z,98753
2018-02-10T13:16:00.000Z,98750
2018-02-10T13:21:00.000Z,98744
2018-02-10T13:26:00.000Z,98745
2018-02-10T13:31:00.000Z,98750
2018-02-10T13:36:00.000Z,98743
2018-02-10T13:41:00.000Z,98744
2018-02-10T13:46:00.000Z,98738
2018-02-10T13:51:00.000Z,98750
2018-02-10T13:56:00.000Z,98735
2018-02-10T14:01:00.000Z,98729
2018-02-10T14:06:00.000Z,98736
2018-02-10T14:11:00.000Z,98729
2018-02-10T14:16:00.000Z,98739
2018-02-10T14:21:00.000Z,98724
2018-02-10T14:26:00.000Z,98712
2018-02-10T14:31:00.000Z,98721
2018-02-10T14:36:00.000Z,98729
2018-02-10T14:41:00.000Z,98722
2018-02-10T14:46:00.000Z,98722
2018-02-10T14:51:00.000Z,98726
2018-02-10T14:56:00.000Z,98722
2018-02-10T15:01:00.000Z,98725
2018-02-10T15:06:00.000Z,98727
2018-02-10T15:11:00.000Z,98732
2018-02-10T15:16:00.000Z,98723
2018-02-10T15:22:00.000Z,98743
2018-02-10T15:27:00.000Z,98728
2018-02-10T15:32:00.000Z,98735
2018-02-10T15:37:00.000Z,98735
2018-02-10T15:42:00.000Z,98743
2018-02-10T15:47:00.000Z,98728
2018-02-10T15:52:00.000Z,98740
2018-02-10T15:57:00.000Z,98752
2018-02-10T16:02:00.000Z,98747
2018-02-10T16:07:00.000Z,98750
2018-02-10T16:12:00.000Z,98753
2018-02-10T16:17:00.000Z,98755
2018-02-10T16:22:00.000Z,98765
2018-02-10T16:27:00.000Z,98748
2018-02-10T16:32:00.000Z,98748
2018-02-10T16:37:00.000Z,98745
2018-02-10T16:42:00.000Z,98746
2018-02-10T16:47:00.000Z,98741
2018-02-10T16:52:00.000Z,98740
2018-02-10T17:02:00.000Z,98733
2018-02-10T17:07:00.000Z,98719
2018-02-10T17:12:00.000Z,98728
2018-02-10T17:17:00.000Z,98727
2018-02-10T17:22:00.000Z,98722
2018-02-10T17:27:00.000Z,98725
2018-02-10T17:32:00.000Z,98729
2018-02-10T17:37:00.000Z,98711
2018-02-10T17:42:00.000Z,98720
2018-02-10T17:47:00.000Z,98723
2018-02-10T17:52:00.000Z,98721
2018-02-10T17:57:00.000Z,98716
2018-02-10T18:02:00.000Z,98718
2018-02-10T18:07:00.000Z,98709
2018-02-10T18:12:00.000Z,98706
2018-02-10T18:17:00.000Z,98709
2018-02-10T18:22:00.000Z,98714
2018-02-10T18:27:00.000Z,98709
2018-02-10T18:32:00.000Z,98707
2018-02-10T18:37:00.000Z,98721
2018-02-10T18:42:00.000Z,98716
2018-02-10T18:47:00.000Z,98714
2018-02-10T18:52:00.000Z,98710
2018-02-10T18:57:00.000Z,98709
2018-02-10T19:02:00.000Z,98712
2018-02-10T19:07:00.000Z,98707
2018-02-10T19:12:00.000Z,98708
2018-02-10T19:18:00.000Z,98704
2018-02-10T19:23:00.000Z,98709
2018-02-10T19:28:00.000Z,98698
2018-02-10T19:33:00.000Z,98691
2018-02-10T19:38:00.000Z,98682
2018-02-10T19:43:00.000Z,98684
2018-02-10T19:48:00.000Z,98668
2018-02-10T19:53:00.000Z,98679
2018-02-10T19:58:00.000Z,98660
2018-02-10T20:03:00.000Z,98669
2018-02-10T20:08:00.000Z,98660
2018-02-10T20:13:00.000Z,98671
2018-02-10T20:18:00.000Z,98668
2018-02-10T20:23:00.000Z,98671
2018-02-10T20:28:00.000Z,98663
2018-02-10T20:33:00.000Z,98679
2018-02-10T20:38:00.000Z,98679
2018-02-10T20:43:00.000Z,98669
2018-02-10T20:48:00.000Z,98678
2018-02-10T20:53:00.000Z,98684
2018-02-10T20:58:00.000Z,98672
2018-02-10T21:03:00.000Z,98667
2018-02-10T21:08:00.000Z,98665
2018-02-10T21:13:00.000Z,98682
2018-02-10T21:18:00.000Z,98677
2018-02-10T21:23:00.000Z,98678
2018-02-10T21:28:00.000Z,98669
2018-02-10T21:33:00.000Z,98681
2018-02-10T21:38:00.000Z,98671
2018-02-10T21:43:00.000Z,98669
2018-02-10T21:48:00.000Z,98665
2018-02-10T21:53:00.000Z,98656
2018-02-10T21:58:00.000Z,98652
2018-02-10T22:03:00.000Z,98648
2018-02-10T22:08:00.000Z,98649
2018-02-10T22:13:00.000Z,98654
2018-02-10T22:18:00.000Z,98647
2018-02-10T22:23:00.000Z,98656
2018-02-10T22:28:00.000Z,98638
2018-02-10T22:33:00.000Z,98648
2018-02-10T22:38:00.000Z,98643
2018-02-10T22:43:00.000Z,98633
2018-02-10T22:48:00.000Z,98620
2018-02-10T22:53:00.000Z,98616
2018-02-10T22:58:00.000Z,98633
2018-02-10T23:03:00.000Z,98613
2018-02-10T23:08:00.000Z,98610
2018-02-10T23:13:00.000Z,98605
2018-02-10T23:18:00.000Z,98594
2018-02-10T23:23:00.000Z,98577
2018-02-10T23:28:00.000Z,98584
2018-02-10T23:33:00.000Z,98581
2018-02-10T23:38:00.000Z,98564
2018-02-10T23:43:00.000Z,98568
2018-02-10T23:48:00.000Z,98557
2018-02-10T23:53:00.000Z,98553
2018-02-10T23:58:00.000Z,98537
